Time;durP1;ratioP1;P1;durP2;ratioP2;P2;SDS_P1;SDS_P2;PMS_P1;PMS_P2;Temp;Humidity;BMP_temperature;BMP_pressure;BME280_temperature;BME280_humidity;BME280_pressure;Samples;Min_cycle;Max_cycle;Signal;HPM_P1;HPM_P2
2023/02/08 00:01:24;;;;;;;6.93;4.20;;;5.40;99.90;;;;;;5016872;28;20210;-69
2023/02/08 00:03:53;;;;;;;4.18;3.25;;;5.40;99.90;;;;;;5023711;28;20225;-66
2023/02/08 00:06:21;;;;;;;5.53;3.92;;;5.40;99.90;;;;;;5020578;28;20663;-66
2023/02/08 00:08:51;;;;;;;3.97;3.10;;;5.40;99.90;;;;;;5019525;28;20279;-68
2023/02/08 00:11:19;;;;;;;4.38;3.80;;;5.40;99.90;;;;;;5018784;28;20288;-68
2023/02/08 00:13:48;;;;;;;5.93;3.72;;;5.40;99.90;;;;;;5012507;28;20215;-66
2023/02/08 00:16:18;;;;;;;3.47;3.13;;;5.40;99.90;;;;;;5022984;28;20206;-67
2023/02/08 00:18:46;;;;;;;4.85;3.67;;;5.40;99.90;;;;;;5018806;28;20254;-68
2023/02/08 00:21:17;;;;;;;3.20;2.80;;;5.40;99.90;;;;;;5016805;28;20229;-66
2023/02/08 00:23:46;;;;;;;4.65;3.88;;;5.40;99.90;;;;;;5013103;28;20950;-67
2023/02/08 00:26:17;;;;;;;4.43;3.33;;;5.40;99.90;;;;;;5024418;28;20224;-67
2023/02/08 00:28:48;;;;;;;5.15;4.65;;;5.40;99.90;;;;;;5016561;28;20236;-68
2023/02/08 00:31:18;;;;;;;4.43;3.88;;;5.30;99.90;;;;;;5025492;28;20208;-67
2023/02/08 00:33:46;;;;;;;4.00;3.60;;;5.30;99.90;;;;;;5013975;28;20282;-66
2023/02/08 00:36:15;;;;;;;4.63;3.30;;;5.30;99.90;;;;;;5021469;28;20240;-66
2023/02/08 00:38:44;;;;;;;3.65;3.35;;;5.30;99.90;;;;;;5011506;28;20214;-68
2023/02/08 00:41:13;;;;;;;3.80;3.25;;;5.30;99.90;;;;;;5013946;28;20249;-66
2023/02/08 00:43:43;;;;;;;4.18;3.30;;;5.30;99.90;;;;;;5018523;28;20557;-66
2023/02/08 00:46:11;;;;;;;3.63;3.08;;;5.30;99.90;;;;;;5016756;28;20502;-69
2023/02/08 00:48:40;;;;;;;4.35;3.08;;;5.30;99.90;;;;;;5022552;28;20219;-67
2023/02/08 00:51:11;;;;;;;4.60;4.20;;;5.30;99.90;;;;;;5018045;28;20199;-67
2023/02/08 00:53:41;;;;;;;3.42;3.13;;;5.30;99.90;;;;;;5016702;28;20325;-67
2023/02/08 00:56:11;;;;;;;4.60;4.20;;;5.30;99.90;;;;;;5023408;28;20670;-68
2023/02/08 00:58:40;;;;;;;6.28;4.00;;;5.30;99.90;;;;;;5029043;28;20253;-67
2023/02/08 01:01:10;;;;;;;6.57;4.95;;;5.30;99.90;;;;;;5009506;28;20570;-67
2023/02/08 01:03:41;;;;;;;4.72;4.03;;;5.30;99.90;;;;;;5018016;28;20226;-68
2023/02/08 01:06:13;;;;;;;4.43;3.53;;;5.30;99.90;;;;;;5019245;28;20206;-67
2023/02/08 01:08:42;;;;;;;4.15;3.50;;;5.30;99.90;;;;;;5019080;28;20245;-66
2023/02/08 01:11:14;;;;;;;5.45;4.15;;;5.30;99.90;;;;;;5021740;28;20548;-68
2023/02/08 01:13:45;;;;;;;3.92;3.42;;;5.30;99.90;;;;;;5036331;28;20221;-68
2023/02/08 01:16:17;;;;;;;4.13;3.20;;;5.30;99.90;;;;;;5018817;28;20191;-67
2023/02/08 01:18:49;;;;;;;3.65;3.35;;;5.30;99.90;;;;;;5022967;28;20221;-66
2023/02/08 01:21:20;;;;;;;4.43;3.28;;;5.30;99.90;;;;;;5019317;28;20289;-67
2023/02/08 01:23:48;;;;;;;4.75;3.55;;;5.30;99.90;;;;;;5019356;28;20636;-68
2023/02/08 01:26:19;;;;;;;4.15;3.15;;;5.30;99.90;;;;;;5021120;28;20225;-68
2023/02/08 01:28:47;;;;;;;3.55;3.13;;;5.30;99.90;;;;;;5020688;28;20669;-68
2023/02/08 01:31:19;;;;;;;4.50;3.20;;;5.30;99.90;;;;;;5016331;28;20708;-68
2023/02/08 01:33:48;;;;;;;3.72;3.33;;;5.30;99.90;;;;;;5023337;28;20687;-67
2023/02/08 01:36:17;;;;;;;4.25;3.85;;;5.30;99.90;;;;;;5021042;28;20198;-67
2023/02/08 01:38:45;;;;;;;4.22;3.35;;;5.30;99.90;;;;;;5018715;28;20632;-67
2023/02/08 01:41:18;;;;;;;3.70;3.15;;;5.30;99.90;;;;;;5026078;28;20281;-66
2023/02/08 01:44:08;;;;;;;4.22;3.53;;;5.30;99.90;;;;;;5017437;28;20241;-68
2023/02/08 01:46:38;;;;;;;3.75;3.30;;;5.30;99.90;;;;;;5018518;28;20192;-69
2023/02/08 01:49:11;;;;;;;4.50;3.17;;;5.30;99.90;;;;;;5008366;28;20223;-68
2023/02/08 01:51:45;;;;;;;4.32;3.42;;;5.30;99.90;;;;;;5037941;28;20397;-67
2023/02/08 01:54:15;;;;;;;3.20;2.90;;;5.30;99.90;;;;;;5022710;28;20244;-69
2023/02/08 01:56:47;;;;;;;4.18;3.75;;;5.30;99.90;;;;;;5021812;28;20202;-66
2023/02/08 01:59:20;;;;;;;4.50;3.55;;;5.20;99.90;;;;;;5024360;28;20197;-67
2023/02/08 02:01:52;;;;;;;5.85;3.40;;;5.20;99.90;;;;;;5014160;28;20229;-67
2023/02/08 02:04:21;;;;;;;4.03;3.60;;;5.20;99.90;;;;;;5014759;28;21267;-69
2023/02/08 02:06:53;;;;;;;3.45;3.15;;;5.20;99.90;;;;;;5018148;28;20210;-67
2023/02/08 02:09:28;;;;;;;5.80;3.50;;;5.20;99.90;;;;;;5025728;28;20259;-67
2023/02/08 02:11:57;;;;;;;3.70;3.40;;;5.20;99.90;;;;;;5020854;28;20893;-68
2023/02/08 02:14:26;;;;;;;4.68;2.80;;;5.20;99.90;;;;;;5021123;28;20233;-68
2023/02/08 02:16:59;;;;;;;4.05;3.65;;;5.20;99.90;;;;;;5011051;28;21324;-69
2023/02/08 02:19:46;;;;;;;4.47;3.25;;;5.20;99.90;;;;;;5015465;28;20269;-67
2023/02/08 02:22:44;;;;;;;4.25;3.30;;;5.20;99.90;;;;;;5013757;28;20226;-68
2023/02/08 02:25:57;;;;;;;3.58;3.08;;;5.20;99.90;;;;;;5012410;28;20226;-66
2023/02/08 02:28:57;;;;;;;3.65;3.28;;;5.20;99.90;;;;;;4990570;28;20466;-67
2023/02/08 02:31:47;;;;;;;3.58;3.28;;;5.20;99.90;;;;;;5010286;28;20194;-67
2023/02/08 02:34:20;;;;;;;4.60;3.53;;;5.20;99.90;;;;;;5011845;28;20230;-67
2023/02/08 02:36:56;;;;;;;4.63;3.70;;;5.20;99.90;;;;;;5009848;28;20595;-67
2023/02/08 02:39:35;;;;;;;4.18;3.40;;;5.20;99.90;;;;;;5007855;28;20193;-66
2023/02/08 02:45:07;;;;;;;3.88;3.28;;;5.20;99.90;;;;;;5013877;28;20229;-67
2023/02/08 02:47:43;;;;;;;4.63;3.60;;;5.20;99.90;;;;;;5014203;28;20284;-66
2023/02/08 02:50:20;;;;;;;3.40;3.10;;;5.20;99.90;;;;;;5018721;28;20275;-67
2023/02/08 02:52:55;;;;;;;3.58;3.28;;;5.20;99.90;;;;;;5012493;28;20691;-66
2023/02/08 02:55:27;;;;;;;4.35;3.78;;;5.20;99.90;;;;;;5020190;28;20224;-67
2023/02/08 02:57:56;;;;;;;5.88;5.03;;;5.10;99.90;;;;;;5035883;28;20718;-66
2023/02/08 03:00:27;;;;;;;4.00;3.65;;;5.10;99.90;;;;;;5020941;28;20281;-68
2023/02/08 03:02:58;;;;;;;5.03;3.47;;;5.10;99.90;;;;;;5008778;28;20467;-68
2023/02/08 03:05:28;;;;;;;4.88;4.18;;;5.10;99.90;;;;;;4999775;28;20217;-68
2023/02/08 03:08:09;;;;;;;4.50;4.10;;;5.10;99.90;;;;;;5011474;28;20250;-67
2023/02/08 03:10:52;;;;;;;4.68;3.97;;;5.10;99.90;;;;;;5013832;28;20595;-66
2023/02/08 03:13:30;;;;;;;6.00;4.70;;;5.10;99.90;;;;;;5014587;28;20309;-66
2023/02/08 03:16:14;;;;;;;6.43;4.88;;;5.00;99.90;;;;;;5027226;28;20223;-66
2023/02/08 03:19:00;;;;;;;6.45;4.60;;;5.00;99.90;;;;;;5025352;28;20309;-68
2023/02/08 03:21:40;;;;;;;4.63;4.20;;;5.00;99.90;;;;;;5019288;28;20595;-67
2023/02/08 03:24:22;;;;;;;5.78;4.57;;;5.00;99.90;;;;;;5033510;28;20228;-66
2023/02/08 03:26:57;;;;;;;4.35;3.75;;;5.00;99.90;;;;;;4997226;28;20639;-67
2023/02/08 03:29:41;;;;;;;5.32;4.13;;;5.00;99.90;;;;;;5027307;28;20295;-68
2023/02/08 03:32:15;;;;;;;5.90;3.95;;;5.00;99.90;;;;;;5029320;28;20222;-67
2023/02/08 03:34:53;;;;;;;5.10;4.30;;;5.00;99.90;;;;;;5019120;28;20634;-68
2023/02/08 03:37:26;;;;;;;4.50;4.10;;;5.00;99.90;;;;;;5027307;28;20579;-68
2023/02/08 03:40:10;;;;;;;6.30;4.53;;;5.00;99.90;;;;;;5013387;28;20195;-68
2023/02/08 03:42:39;;;;;;;4.28;3.58;;;5.00;99.90;;;;;;5033976;28;20224;-67
2023/02/08 03:45:14;;;;;;;5.57;4.55;;;5.00;99.90;;;;;;5029318;28;20219;-66
2023/02/08 03:47:46;;;;;;;5.72;5.15;;;5.00;99.90;;;;;;5022224;28;20316;-67
2023/02/08 03:50:18;;;;;;;4.75;4.20;;;5.00;99.90;;;;;;5020814;28;20249;-68
2023/02/08 03:52:47;;;;;;;5.57;4.75;;;5.00;99.90;;;;;;5021212;28;20217;-67
2023/02/08 03:55:20;;;;;;;5.78;5.18;;;4.90;99.90;;;;;;5035547;28;20216;-67
2023/02/08 03:57:54;;;;;;;4.88;4.25;;;4.90;99.90;;;;;;5021026;28;20687;-66
2023/02/08 04:00:23;;;;;;;4.20;3.80;;;4.90;99.90;;;;;;5027021;28;20674;-67
2023/02/08 04:02:56;;;;;;;4.97;3.70;;;4.90;99.90;;;;;;5029067;28;20221;-67
2023/02/08 04:05:26;;;;;;;5.50;4.57;;;4.90;99.90;;;;;;5020271;28;20664;-67
2023/02/08 04:07:55;;;;;;;4.32;3.55;;;4.90;99.90;;;;;;5019170;28;20262;-66
2023/02/08 04:10:23;;;;;;;4.35;3.70;;;5.00;99.90;;;;;;5019493;28;20253;-66
2023/02/08 04:12:52;;;;;;;3.95;3.35;;;5.00;99.90;;;;;;5022446;28;20245;-67
2023/02/08 04:15:20;;;;;;;6.13;4.38;;;5.00;99.90;;;;;;5025223;28;20217;-67
2023/02/08 04:17:49;;;;;;;4.72;3.60;;;5.00;99.90;;;;;;5016296;28;20215;-66
2023/02/08 04:20:17;;;;;;;4.63;3.30;;;5.00;99.90;;;;;;5017602;28;20650;-67
2023/02/08 04:22:47;;;;;;;4.97;3.63;;;5.00;99.90;;;;;;5016049;28;20214;-67
2023/02/08 04:25:17;;;;;;;4.60;3.10;;;5.00;99.90;;;;;;5024413;28;20308;-67
2023/02/08 04:27:45;;;;;;;6.00;4.10;;;5.00;99.90;;;;;;5027815;28;20229;-65
2023/02/08 04:30:14;;;;;;;5.60;3.50;;;5.00;99.90;;;;;;5025064;28;20210;-67
2023/02/08 04:32:42;;;;;;;4.90;4.45;;;5.00;99.90;;;;;;4996747;28;20561;-65
2023/02/08 04:35:11;;;;;;;4.30;3.92;;;5.00;99.90;;;;;;5017439;28;20257;-68
2023/02/08 04:37:42;;;;;;;4.32;3.92;;;5.00;99.90;;;;;;5018164;28;20232;-66
2023/02/08 04:40:12;;;;;;;4.60;3.35;;;4.90;99.90;;;;;;5023838;28;20208;-67
2023/02/08 04:42:41;;;;;;;4.68;3.92;;;4.90;99.90;;;;;;5018722;28;20649;-67
2023/02/08 04:45:10;;;;;;;5.32;4.22;;;5.00;99.90;;;;;;5020249;28;20224;-68
2023/02/08 04:47:38;;;;;;;5.28;4.40;;;4.90;99.90;;;;;;5016952;28;20224;-67
2023/02/08 04:50:07;;;;;;;5.00;4.50;;;4.90;99.90;;;;;;5014478;28;20337;-67
2023/02/08 04:52:35;;;;;;;6.13;4.35;;;4.90;99.90;;;;;;5016664;28;20309;-67
2023/02/08 04:55:05;;;;;;;5.63;4.13;;;4.90;99.90;;;;;;5013925;28;20767;-68
2023/02/08 04:57:34;;;;;;;5.35;3.45;;;4.90;99.90;;;;;;5013297;28;20748;-67
2023/02/08 05:00:04;;;;;;;6.40;4.90;;;4.90;99.90;;;;;;5021297;28;20194;-68
2023/02/08 05:02:32;;;;;;;5.25;4.30;;;4.90;99.90;;;;;;5024142;28;20229;-66
2023/02/08 05:05:01;;;;;;;5.30;4.80;;;4.80;99.90;;;;;;5014546;28;20253;-69
2023/02/08 05:07:29;;;;;;;5.25;3.97;;;4.80;99.90;;;;;;5010747;28;20228;-67
2023/02/08 05:09:58;;;;;;;6.13;4.40;;;4.90;99.90;;;;;;5010770;28;20801;-67
2023/02/08 05:12:26;;;;;;;5.35;4.03;;;4.80;99.90;;;;;;5021554;28;20282;-68
2023/02/08 05:14:56;;;;;;;4.57;3.88;;;4.90;99.90;;;;;;5025539;28;20241;-68
2023/02/08 05:17:24;;;;;;;4.30;3.50;;;4.90;99.90;;;;;;5024625;28;20280;-66
2023/02/08 05:19:53;;;;;;;3.80;3.50;;;4.90;99.90;;;;;;5022386;28;20218;-68
2023/02/08 05:22:21;;;;;;;3.53;3.13;;;4.90;99.90;;;;;;5022341;28;20193;-69
2023/02/08 05:24:50;;;;;;;4.80;4.13;;;4.90;99.90;;;;;;5020745;28;20800;-66
2023/02/08 05:27:18;;;;;;;5.25;3.97;;;4.90;99.90;;;;;;5017503;28;20713;-66
2023/02/08 05:29:46;;;;;;;4.45;3.60;;;4.90;99.90;;;;;;5010006;28;20342;-67
2023/02/08 05:32:16;;;;;;;5.18;4.68;;;4.90;99.90;;;;;;5012616;28;20657;-65
2023/02/08 05:34:45;;;;;;;4.93;4.45;;;4.80;99.90;;;;;;5014856;28;20226;-67
2023/02/08 05:37:13;;;;;;;3.85;3.30;;;4.80;99.90;;;;;;5018303;28;20263;-67
2023/02/08 05:39:42;;;;;;;3.50;3.20;;;4.80;99.90;;;;;;5027356;28;20270;-67
2023/02/08 05:42:10;;;;;;;4.47;3.50;;;4.80;99.90;;;;;;5026406;28;20194;-65
2023/02/08 05:44:39;;;;;;;4.65;3.50;;;4.80;99.90;;;;;;5012804;28;20218;-67
2023/02/08 05:47:10;;;;;;;4.82;4.20;;;4.80;99.90;;;;;;5020292;28;20264;-66
2023/02/08 05:49:39;;;;;;;4.25;3.63;;;4.80;99.90;;;;;;5016741;28;20241;-67
2023/02/08 05:52:08;;;;;;;6.28;3.33;;;4.80;99.90;;;;;;5025589;28;20605;-67
2023/02/08 05:54:36;;;;;;;3.90;3.17;;;4.80;99.90;;;;;;5024859;28;20238;-67
2023/02/08 05:57:04;;;;;;;4.88;4.05;;;4.80;99.90;;;;;;5017395;28;20225;-65
2023/02/08 05:59:33;;;;;;;5.53;4.35;;;4.80;99.90;;;;;;5016570;28;20568;-66
2023/02/08 06:02:01;;;;;;;4.90;3.20;;;4.80;99.90;;;;;;5024971;28;20747;-67
2023/02/08 06:04:29;;;;;;;5.03;4.47;;;4.80;99.90;;;;;;5017386;28;20220;-67
2023/02/08 06:06:59;;;;;;;6.38;4.57;;;4.80;99.90;;;;;;5023024;28;20227;-67
2023/02/08 06:09:28;;;;;;;6.22;4.57;;;4.70;99.90;;;;;;5025764;28;20590;-67
2023/02/08 06:11:56;;;;;;;4.60;4.03;;;4.70;99.90;;;;;;5022540;28;20210;-67
2023/02/08 06:14:25;;;;;;;6.40;4.38;;;4.70;99.90;;;;;;5017473;28;20310;-67
2023/02/08 06:16:53;;;;;;;4.68;3.55;;;4.70;99.90;;;;;;5014885;28;20198;-65
2023/02/08 06:19:22;;;;;;;4.60;4.13;;;4.70;99.90;;;;;;5020079;28;20203;-66
2023/02/08 06:21:50;;;;;;;5.20;4.10;;;4.70;99.90;;;;;;5036978;28;20665;-68
2023/02/08 06:24:20;;;;;;;6.70;4.43;;;4.70;99.90;;;;;;5009862;28;20770;-67
2023/02/08 06:26:48;;;;;;;5.93;4.35;;;4.70;99.90;;;;;;5012929;28;20186;-67
2023/02/08 06:29:17;;;;;;;7.65;4.25;;;4.60;99.90;;;;;;5014188;28;20241;-68
2023/02/08 06:31:45;;;;;;;3.72;3.42;;;4.60;99.90;;;;;;5017424;28;20777;-68
2023/02/08 06:34:14;;;;;;;5.03;4.13;;;4.60;99.90;;;;;;5028876;28;20225;-68
2023/02/08 06:36:44;;;;;;;5.50;4.50;;;4.60;99.90;;;;;;5038838;28;20194;-66
2023/02/08 06:39:12;;;;;;;5.85;3.92;;;4.60;99.90;;;;;;5014787;28;20735;-67
2023/02/08 06:41:42;;;;;;;5.05;3.75;;;4.60;99.90;;;;;;5040607;28;20200;-66
2023/02/08 06:44:10;;;;;;;3.92;3.53;;;4.60;99.90;;;;;;5018589;28;20218;-66
2023/02/08 06:46:39;;;;;;;4.05;3.65;;;4.60;99.90;;;;;;5023040;28;20186;-66
2023/02/08 06:49:07;;;;;;;3.63;3.30;;;4.60;99.90;;;;;;5012389;28;20228;-67
2023/02/08 06:51:35;;;;;;;3.63;3.25;;;4.60;99.90;;;;;;5026831;28;20222;-68
2023/02/08 06:54:04;;;;;;;4.10;3.30;;;4.60;99.90;;;;;;5022310;28;20194;-65
2023/02/08 06:56:32;;;;;;;4.10;3.70;;;4.60;99.90;;;;;;5018330;28;20625;-66
2023/02/08 06:59:02;;;;;;;4.88;4.38;;;4.60;99.90;;;;;;5017520;28;21062;-67
2023/02/08 07:01:31;;;;;;;4.78;3.70;;;4.60;99.90;;;;;;5028652;28;20292;-66
2023/02/08 07:03:59;;;;;;;5.38;3.95;;;4.60;99.90;;;;;;5022758;28;20689;-66
2023/02/08 07:06:27;;;;;;;4.03;3.30;;;4.60;99.90;;;;;;5016911;28;20694;-66
2023/02/08 07:08:56;;;;;;;5.10;3.97;;;4.60;99.90;;;;;;5017757;28;20221;-67
2023/02/08 07:11:24;;;;;;;4.35;3.95;;;4.60;99.90;;;;;;5022286;28;20206;-67
2023/02/08 07:13:53;;;;;;;3.38;3.08;;;4.60;99.90;;;;;;5019755;28;20635;-68
2023/02/08 07:16:23;;;;;;;4.10;3.40;;;4.60;99.90;;;;;;5016935;28;20189;-67
2023/02/08 07:18:51;;;;;;;5.50;3.80;;;4.60;99.90;;;;;;5026604;28;20217;-67
2023/02/08 07:21:20;;;;;;;5.72;3.65;;;4.60;99.90;;;;;;5021404;28;20646;-68
2023/02/08 07:23:48;;;;;;;4.97;3.40;;;4.60;99.90;;;;;;5018304;28;20728;-66
2023/02/08 07:26:17;;;;;;;4.85;4.30;;;4.60;99.90;;;;;;5023925;28;20232;-66
2023/02/08 07:28:45;;;;;;;4.55;3.15;;;4.60;99.90;;;;;;5024699;28;20217;-66
2023/02/08 07:31:16;;;;;;;3.15;2.85;;;4.60;99.90;;;;;;5018703;28;20202;-67
2023/02/08 07:33:46;;;;;;;4.03;3.40;;;4.60;99.90;;;;;;5019854;28;20218;-67
2023/02/08 07:36:15;;;;;;;4.93;3.65;;;4.60;99.90;;;;;;5023881;28;20194;-66
2023/02/08 07:38:43;;;;;;;3.53;3.05;;;4.60;99.90;;;;;;5021951;28;20225;-66
2023/02/08 07:41:13;;;;;;;3.47;3.17;;;4.60;99.90;;;;;;5016346;28;20224;-67
2023/02/08 07:43:42;;;;;;;4.60;3.45;;;4.60;99.90;;;;;;5024622;28;20214;-67
2023/02/08 07:46:13;;;;;;;4.28;3.42;;;4.60;99.90;;;;;;5017846;28;20251;-66
2023/02/08 07:48:42;;;;;;;3.58;3.22;;;4.60;99.90;;;;;;5019103;28;20260;-68
2023/02/08 07:51:13;;;;;;;4.07;3.33;;;4.60;99.90;;;;;;5013381;28;20194;-66
2023/02/08 07:53:41;;;;;;;3.97;3.42;;;4.60;99.90;;;;;;5023312;28;20217;-67
2023/02/08 07:56:10;;;;;;;4.95;4.55;;;4.60;99.90;;;;;;5025178;28;20249;-67
2023/02/08 07:58:39;;;;;;;3.90;3.45;;;4.60;99.90;;;;;;5024139;28;20584;-67
2023/02/08 08:01:07;;;;;;;4.18;3.78;;;4.60;99.90;;;;;;5024575;28;20206;-67
2023/02/08 08:03:50;;;;;;;4.20;3.80;;;4.60;99.90;;;;;;5027825;28;20222;-66
2023/02/08 08:06:22;;;;;;;3.70;3.40;;;4.60;99.90;;;;;;5024819;28;20199;-67
2023/02/08 08:08:51;;;;;;;5.47;4.00;;;4.60;99.90;;;;;;5025305;28;20269;-66
2023/02/08 08:11:21;;;;;;;4.93;3.70;;;4.60;99.90;;;;;;5025735;28;20693;-67
2023/02/08 08:13:50;;;;;;;6.15;4.15;;;4.60;99.90;;;;;;5020335;28;20628;-68
2023/02/08 08:16:18;;;;;;;5.50;4.30;;;4.50;99.90;;;;;;5022047;28;20213;-67
2023/02/08 08:18:47;;;;;;;6.88;4.70;;;4.50;99.90;;;;;;5017981;28;20272;-67
2023/02/08 08:21:15;;;;;;;7.05;3.97;;;4.50;99.90;;;;;;5023392;28;20206;-67
2023/02/08 08:23:45;;;;;;;5.18;4.00;;;4.50;99.90;;;;;;5007448;28;20523;-67
2023/02/08 08:26:15;;;;;;;4.53;3.55;;;4.50;99.90;;;;;;5021186;28;20205;-67
2023/02/08 08:28:46;;;;;;;5.25;4.43;;;4.50;99.90;;;;;;5037850;28;20253;-66
2023/02/08 08:31:16;;;;;;;9.00;4.10;;;4.50;99.90;;;;;;5025338;28;20204;-68
2023/02/08 08:33:45;;;;;;;5.55;4.38;;;4.50;99.90;;;;;;5019842;28;20579;-68
2023/02/08 08:36:14;;;;;;;3.85;3.10;;;4.50;99.90;;;;;;5025720;28;20194;-67
2023/02/08 08:38:42;;;;;;;4.45;4.00;;;4.50;99.90;;;;;;5013844;28;20279;-68
2023/02/08 08:41:15;;;;;;;6.03;4.80;;;4.50;99.90;;;;;;5016720;28;20198;-67
2023/02/08 08:43:45;;;;;;;5.45;4.35;;;4.50;99.90;;;;;;5023682;28;20243;-67
2023/02/08 08:46:16;;;;;;;5.20;4.45;;;4.50;99.90;;;;;;5026101;28;20982;-69
2023/02/08 08:48:46;;;;;;;5.32;4.03;;;4.50;99.90;;;;;;5021587;28;20225;-68
2023/02/08 08:51:15;;;;;;;5.07;3.72;;;4.50;99.90;;;;;;5015876;28;20818;-69
2023/02/08 08:53:43;;;;;;;3.92;3.53;;;4.50;99.90;;;;;;5022793;28;20232;-67
2023/02/08 08:56:13;;;;;;;5.32;4.30;;;4.50;99.90;;;;;;5016747;28;20195;-69
2023/02/08 08:58:42;;;;;;;3.65;3.35;;;4.60;99.90;;;;;;5018045;28;20837;-68
2023/02/08 09:01:12;;;;;;;4.15;3.00;;;4.60;99.90;;;;;;5012226;28;20190;-65
2023/02/08 09:03:41;;;;;;;4.15;3.33;;;4.60;99.90;;;;;;5018602;28;20267;-68
2023/02/08 09:06:10;;;;;;;5.40;3.78;;;4.60;99.90;;;;;;5024805;28;20214;-68
2023/02/08 09:08:39;;;;;;;4.65;3.63;;;4.60;99.90;;;;;;5018809;28;20250;-69
2023/02/08 09:11:09;;;;;;;4.55;3.53;;;4.60;99.90;;;;;;5019524;28;20683;-67
2023/02/08 09:13:40;;;;;;;6.18;4.00;;;4.60;99.90;;;;;;5013436;28;20253;-69
2023/02/08 09:16:11;;;;;;;4.05;3.50;;;4.60;99.90;;;;;;5017265;28;20309;-68
2023/02/08 09:18:40;;;;;;;4.45;3.53;;;4.60;99.90;;;;;;5017853;28;20221;-68
2023/02/08 09:21:09;;;;;;;4.18;3.00;;;4.60;99.90;;;;;;5015246;28;20196;-68
2023/02/08 09:23:37;;;;;;;3.53;3.22;;;4.70;99.90;;;;;;5021315;28;20257;-67
2023/02/08 09:26:09;;;;;;;4.70;4.20;;;4.70;99.90;;;;;;5004324;28;20312;-67
2023/02/08 09:28:39;;;;;;;5.78;3.50;;;4.70;99.90;;;;;;5014959;28;20225;-70
2023/02/08 09:31:08;;;;;;;5.55;3.63;;;4.70;99.90;;;;;;5024225;28;20205;-68
2023/02/08 09:33:37;;;;;;;4.22;3.80;;;4.70;99.90;;;;;;5020378;28;20217;-66
2023/02/08 09:36:06;;;;;;;3.70;3.15;;;4.70;99.90;;;;;;5017972;28;20224;-68
2023/02/08 09:38:35;;;;;;;4.72;3.75;;;4.70;99.90;;;;;;5011899;28;20753;-68
2023/02/08 09:41:17;;;;;;;4.47;2.97;;;4.70;99.90;;;;;;5016614;28;20198;-68
2023/02/08 09:43:52;;;;;;;4.55;3.30;;;4.70;99.90;;;;;;5016537;28;20713;-67
2023/02/08 09:46:22;;;;;;;5.15;3.58;;;4.70;99.90;;;;;;5013276;28;20857;-67
2023/02/08 09:48:52;;;;;;;4.22;3.45;;;4.70;99.90;;;;;;5016381;28;20222;-67
2023/02/08 09:51:29;;;;;;;3.60;3.30;;;4.70;99.90;;;;;;5015678;28;20204;-68
2023/02/08 09:54:03;;;;;;;4.32;3.17;;;4.80;99.90;;;;;;5014799;28;20230;-66
2023/02/08 09:56:39;;;;;;;4.45;3.80;;;4.70;99.90;;;;;;5019112;28;20618;-68
2023/02/08 09:59:15;;;;;;;4.30;3.90;;;4.70;99.90;;;;;;5019419;28;20690;-69
2023/02/08 10:01:44;;;;;;;6.05;4.32;;;4.70;99.90;;;;;;5015032;28;20263;-69
2023/02/08 10:04:23;;;;;;;4.03;3.13;;;4.80;99.90;;;;;;5022635;28;20220;-68
2023/02/08 10:06:52;;;;;;;4.45;3.33;;;4.70;99.90;;;;;;5016320;28;20345;-66
2023/02/08 10:09:25;;;;;;;6.20;3.10;;;4.80;99.90;;;;;;5008596;28;20248;-66
2023/02/08 10:12:04;;;;;;;6.43;3.20;;;4.70;99.90;;;;;;5019093;28;20244;-67
2023/02/08 10:14:55;;;;;;;4.63;3.60;;;4.80;99.90;;;;;;5018008;28;20222;-68
2023/02/08 10:17:44;;;;;;;3.65;3.20;;;4.80;99.90;;;;;;5023650;28;20575;-68
2023/02/08 10:20:30;;;;;;;4.57;3.38;;;4.80;99.90;;;;;;5021566;28;20220;-74
2023/02/08 10:23:07;;;;;;;4.45;3.00;;;4.80;99.90;;;;;;5015830;28;20237;-75
2023/02/08 10:25:53;;;;;;;3.33;3.03;;;4.70;99.90;;;;;;5016657;28;20757;-75
2023/02/08 10:28:38;;;;;;;7.00;3.95;;;4.70;99.90;;;;;;5019636;28;20218;-74
2023/02/08 10:31:18;;;;;;;5.10;3.72;;;4.70;99.90;;;;;;5014863;28;20203;-75
2023/02/08 10:33:54;;;;;;;4.43;3.40;;;4.70;99.90;;;;;;5018955;28;20282;-73
2023/02/08 10:36:28;;;;;;;4.15;3.20;;;4.70;99.90;;;;;;5019552;28;20205;-75
2023/02/08 10:38:58;;;;;;;4.55;3.10;;;4.70;99.90;;;;;;5018503;28;20938;-73
2023/02/08 10:41:33;;;;;;;3.90;3.42;;;4.70;99.90;;;;;;5010776;28;20198;-73
2023/02/08 10:44:09;;;;;;;5.05;3.58;;;4.70;99.90;;;;;;5014876;28;20637;-75
2023/02/08 10:46:47;;;;;;;3.67;3.10;;;4.70;99.90;;;;;;5017528;28;20199;-75
2023/02/08 10:49:23;;;;;;;4.00;2.90;;;4.70;99.90;;;;;;5042831;28;20198;-75
2023/02/08 10:51:53;;;;;;;3.20;2.90;;;4.70;99.90;;;;;;5014143;28;20225;-76
2023/02/08 10:54:22;;;;;;;4.63;3.53;;;4.70;99.90;;;;;;5038291;28;20219;-73
2023/02/08 10:56:56;;;;;;;3.70;3.08;;;4.70;99.90;;;;;;5022159;28;20193;-73
2023/02/08 10:59:28;;;;;;;3.95;3.55;;;4.70;99.90;;;;;;5019200;28;20202;-74
2023/02/08 11:01:59;;;;;;;7.00;3.50;;;4.70;99.90;;;;;;5009076;28;20200;-73
2023/02/08 11:04:27;;;;;;;5.07;3.65;;;4.70;99.90;;;;;;5020541;28;20267;-74
2023/02/08 11:06:56;;;;;;;5.38;3.13;;;4.70;99.90;;;;;;5024874;28;20259;-75
2023/02/08 11:09:27;;;;;;;4.82;3.55;;;4.70;99.90;;;;;;5028119;28;20244;-74
2023/02/08 11:11:57;;;;;;;4.07;3.70;;;4.70;99.90;;;;;;5020608;28;20194;-76
2023/02/08 11:14:30;;;;;;;4.65;3.35;;;4.70;99.90;;;;;;5024151;28;20229;-75
2023/02/08 11:17:26;;;;;;;4.57;3.45;;;4.70;99.90;;;;;;5025382;28;20221;-75
2023/02/08 11:19:55;;;;;;;3.78;3.25;;;4.70;99.90;;;;;;5020798;28;20313;-75
2023/02/08 11:22:26;;;;;;;3.92;2.97;;;4.70;99.90;;;;;;5013933;28;20218;-75
2023/02/08 11:24:57;;;;;;;3.38;2.97;;;4.70;99.90;;;;;;5156823;22;20308;-70
2023/02/08 11:27:35;;;;;;;4.18;2.97;;;4.70;99.90;;;;;;5043095;28;20252;-69
2023/02/08 11:30:27;;;;;;;3.10;2.80;;;4.70;99.90;;;;;;5036606;28;20205;-69
2023/02/08 11:33:18;;;;;;;3.53;3.22;;;4.70;99.90;;;;;;5023959;28;20217;-69
2023/02/08 11:36:06;;;;;;;4.10;2.92;;;4.70;99.90;;;;;;5034840;28;20245;-69
2023/02/08 11:38:40;;;;;;;4.28;3.33;;;4.70;99.90;;;;;;5054555;28;20570;-69
2023/02/08 11:41:16;;;;;;;4.65;3.33;;;4.70;99.90;;;;;;5041460;28;21454;-69
2023/02/08 11:44:09;;;;;;;5.35;3.17;;;4.70;99.90;;;;;;5036323;28;20221;-69
2023/02/08 11:46:40;;;;;;;4.60;3.28;;;4.70;99.90;;;;;;5044117;28;20213;-69
2023/02/08 11:49:23;;;;;;;3.83;3.40;;;4.70;99.90;;;;;;5035853;28;20204;-69
2023/02/08 11:51:52;;;;;;;4.78;3.40;;;4.70;99.90;;;;;;5041937;28;20233;-69
2023/02/08 11:54:40;;;;;;;3.78;2.72;;;4.70;99.90;;;;;;5040231;28;20252;-69
2023/02/08 11:57:15;;;;;;;5.07;3.10;;;4.70;99.90;;;;;;5032408;28;20232;-69
2023/02/08 11:59:43;;;;;;;2.88;2.47;;;4.70;99.90;;;;;;5035667;28;20280;-69
2023/02/08 12:02:37;;;;;;;3.10;2.70;;;4.70;99.90;;;;;;5034686;28;20623;-69
2023/02/08 12:05:13;;;;;;;4.75;3.10;;;4.70;99.90;;;;;;5018730;28;20303;-69
2023/02/08 12:07:56;;;;;;;4.15;3.17;;;4.70;99.90;;;;;;5039781;28;20834;-69
2023/02/08 12:10:40;;;;;;;3.42;2.95;;;4.70;99.90;;;;;;5043108;28;20205;-69
2023/02/08 12:13:39;;;;;;;3.83;3.05;;;4.70;99.90;;;;;;5034563;28;20221;-69
2023/02/08 12:16:18;;;;;;;5.95;2.65;;;4.70;99.90;;;;;;5018993;28;20221;-69
2023/02/08 12:19:07;;;;;;;3.83;3.10;;;4.70;99.90;;;;;;5033929;28;20309;-69
2023/02/08 12:21:43;;;;;;;3.67;2.92;;;4.70;99.90;;;;;;5043335;28;20542;-69
2023/02/08 12:24:21;;;;;;;3.20;2.80;;;4.60;99.90;;;;;;5041741;28;20228;-69
2023/02/08 12:27:03;;;;;;;3.17;2.80;;;4.70;99.90;;;;;;5045585;28;20630;-69
2023/02/08 12:29:45;;;;;;;4.03;3.63;;;4.70;99.90;;;;;;5024863;28;20225;-69
2023/02/08 12:32:32;;;;;;;3.58;2.70;;;4.70;99.90;;;;;;5028725;28;20233;-69
2023/02/08 12:35:29;;;;;;;3.35;2.70;;;4.70;99.90;;;;;;5031346;28;20221;-69
2023/02/08 12:41:22;;;;;;;3.20;2.55;;;4.70;99.90;;;;;;5033559;28;20204;-69
2023/02/08 12:44:01;;;;;;;4.60;3.35;;;4.70;99.90;;;;;;5038133;28;20717;-69
2023/02/08 12:46:50;;;;;;;3.60;3.10;;;4.70;99.90;;;;;;5040448;28;20207;-69
2023/02/08 12:49:50;;;;;;;4.55;3.03;;;4.70;99.90;;;;;;5035678;28;20653;-69
2023/02/08 12:52:28;;;;;;;4.15;3.35;;;4.70;99.90;;;;;;5039995;28;20281;-69
2023/02/08 12:55:05;;;;;;;4.38;3.22;;;4.70;99.90;;;;;;5040693;28;20277;-68
2023/02/08 12:57:33;;;;;;;4.68;3.20;;;4.70;99.90;;;;;;5038754;28;20680;-72
2023/02/08 13:00:05;;;;;;;3.47;2.83;;;4.70;99.90;;;;;;5037910;28;20187;-72
2023/02/08 13:02:43;;;;;;;4.78;4.00;;;4.70;99.90;;;;;;5036391;28;20218;-72
2023/02/08 13:05:17;;;;;;;4.35;2.90;;;4.70;99.90;;;;;;5039686;28;20212;-72
2023/02/08 13:07:49;;;;;;;3.50;2.67;;;4.70;99.90;;;;;;5031315;28;20217;-72
2023/02/08 13:10:26;;;;;;;3.20;2.60;;;4.70;99.90;;;;;;5044987;28;20570;-72
2023/02/08 13:12:58;;;;;;;2.92;2.53;;;4.70;99.90;;;;;;5036750;28;20694;-72
2023/02/08 13:15:32;;;;;;;2.03;1.83;;;4.70;99.90;;;;;;5035864;28;20253;-72
2023/02/08 13:18:06;;;;;;;2.80;2.50;;;4.70;99.90;;;;;;5035973;28;20267;-72
2023/02/08 13:20:41;;;;;;;4.38;3.08;;;4.70;99.90;;;;;;5029580;28;20201;-72
2023/02/08 13:23:18;;;;;;;4.30;2.95;;;4.70;99.90;;;;;;5038461;28;20223;-72
2023/02/08 13:25:50;;;;;;;3.95;2.70;;;4.70;99.90;;;;;;5039215;28;20229;-72
2023/02/08 13:28:21;;;;;;;4.75;2.80;;;4.70;99.90;;;;;;5033018;28;20575;-72
2023/02/08 13:31:01;;;;;;;2.63;2.38;;;4.70;99.90;;;;;;5040062;28;20312;-72
2023/02/08 13:33:37;;;;;;;3.10;2.78;;;4.70;99.90;;;;;;5028841;28;20322;-72